NAT weather

Governador Aluízio Alves International Airport
Natal, Rio Grande do Norte, Brazil

Public forecast

Using degrees Celsius for public forecast. Weather courtesy of forecast.io.

Current aviation weather report (METAR) for Governador Aluízio Alves International Airport

Retrieved 2020/01/21 22:00 UTC (29 minutes ago):

SBSG 212200Z 10007KT 9999 FEW015 SCT019 27/24 Q1010

Aviation forecast (TAF) for Governador Aluízio Alves International Airport

Forecast is more than 6 hours old.

Retrieved 2020/01/21 12:15 UTC (10 hours ago):

TAF SBSG 211000Z 2112/2212 18008KT 9999 BKN025 TX31/2114Z TN24/2206Z BECMG 2116/2118 14015KT FEW030 BECMG 2122/2124 17008KT RMK PEH